Time;durP1;ratioP1;P1;durP2;ratioP2;P2;SDS_P1;SDS_P2;PMS_P1;PMS_P2;Temp;Humidity;BMP_temperature;BMP_pressure;BME280_temperature;BME280_humidity;BME280_pressure;Samples;Min_cycle;Max_cycle;Signal;HPM_P1;HPM_P2
2023/01/11 13:23:24;;;;;;;;;2.00;1.00;;;;;17.75;48.21;101512.69;6272075;22;45712;-83
2023/01/11 13:29:32;;;;;;;;;;;;;;;;;;;;;
2023/01/11 15:48:43;;;;;;;;;2.33;1.00;;;;;12.97;53.15;101564.56;6279475;22;45350;-86
2023/01/11 16:56:37;;;;;;;;;3.75;2.00;;;;;11.83;58.28;101621.47;6275805;22;45388;-83
2023/01/11 16:59:46;;;;;;;;;3.00;2.00;;;;;11.80;58.74;101624.97;6248014;22;45230;-83
2023/01/11 17:15:48;;;;;;;;;;;;;;;;;;;;;
2023/01/11 17:21:31;;;;;;;;;6.00;5.00;;;;;11.68;59.67;101646.00;6270477;22;45876;-79
2023/01/11 17:24:23;;;;;;;;;5.33;2.67;;;;;11.52;59.90;101628.31;6242386;22;45570;-82
2023/01/11 17:26:53;;;;;;;;;3.00;3.00;;;;;11.64;59.99;101637.19;6243107;22;46884;-78
2023/01/11 17:29:57;;;;;;;;;3.00;3.00;;;;;11.63;60.22;101647.75;6246098;22;45619;-81
2023/01/11 17:33:53;;;;;;;;;;;;;;;;;;;;;
2023/01/11 17:36:10;;;;;;;;;6.00;4.00;;;;;11.59;60.86;101633.63;6201558;22;45306;-79
2023/01/11 17:45:49;;;;;;;;;4.00;4.00;;;;;11.55;60.63;101636.28;6273338;22;45433;-81
2023/01/11 17:48:15;;;;;;;;;3.33;3.33;;;;;11.50;60.69;101630.97;6224099;22;45472;-79
2023/01/11 17:51:13;;;;;;;;;3.67;2.67;;;;;11.39;61.14;101609.78;6246823;22;47144;-80
2023/01/11 17:53:39;;;;;;;;;2.33;2.33;;;;;11.44;61.02;101615.06;6225145;22;45249;-81
2023/01/11 17:56:06;;;;;;;;;5.00;4.00;;;;;11.52;61.38;101628.31;6237244;22;45201;-81
2023/01/11 17:58:48;;;;;;;;;2.25;2.25;;;;;11.51;61.07;101632.72;6247549;22;45223;-82
2023/01/11 18:01:26;;;;;;;;;2.67;2.33;;;;;11.42;61.17;101614.19;6245726;22;47768;-82
2023/01/11 18:07:50;;;;;;;;;3.25;1.00;;;;;11.50;61.47;101628.31;6060353;22;4161243;-78
2023/01/11 18:10:27;;;;;;;;;6.50;6.00;;;;;11.45;61.61;101620.38;6248348;22;45667;-79
2023/01/11 18:12:57;;;;;;;;;4.00;2.33;;;;;11.34;61.48;101603.59;6248013;22;48270;-79
2023/01/11 18:15:32;;;;;;;;;2.00;1.67;;;;;11.42;61.57;101616.84;6249022;22;45513;-81
2023/01/11 18:18:04;;;;;;;;;4.00;3.00;;;;;11.48;61.72;101627.41;6274838;22;45686;-79
2023/01/11 18:20:48;;;;;;;;;3.00;3.00;;;;;11.51;61.90;101635.34;6248030;22;45572;-82
2023/01/11 18:23:21;;;;;;;;;2.50;1.75;;;;;11.37;61.91;101605.38;6245914;22;46813;-79
2023/01/11 18:26:23;;;;;;;;;5.00;2.50;;;;;11.51;61.97;101630.06;6248196;22;45443;-81
2023/01/11 18:29:14;;;;;;;;;5.00;3.33;;;;;11.31;61.84;101576.34;6249756;22;45391;-83
2023/01/11 18:31:40;;;;;;;;;4.67;4.00;;;;;11.42;61.96;101612.44;6277045;22;45256;-80
2023/01/11 18:34:05;;;;;;;;;4.00;2.67;;;;;11.42;62.03;101612.44;6277031;22;45224;-79
2023/01/11 18:36:31;;;;;;;;;3.33;1.67;;;;;11.44;62.08;101626.53;6276786;22;45191;-79
2023/01/11 18:38:56;;;;;;;;;4.50;2.50;;;;;11.38;62.31;101610.63;6249950;22;45226;-78
2023/01/11 18:44:12;;;;;;;;;3.50;2.00;;;;;11.43;62.18;101614.19;6277028;22;45169;-79
2023/01/11 18:46:53;;;;;;;;;;;;;;;;;;;;;
2023/01/11 18:49:30;;;;;;;;;2.33;1.00;;;;;11.40;62.25;101629.13;6275754;22;69195;-79
2023/01/11 18:51:58;;;;;;;;;3.50;2.75;;;;;11.43;62.56;101642.31;6245888;22;45452;-78
2023/01/11 18:57:41;;;;;;;;;3.50;2.75;;;;;11.39;62.90;101653.72;6254109;22;45425;-79
2023/01/11 19:00:07;;;;;;;;;3.75;3.00;;;;;11.38;63.11;101655.47;6249676;22;45368;-78
2023/01/11 19:02:40;;;;;;;;;4.00;1.00;;;;;11.32;62.99;101655.41;6248525;22;45560;-78
2023/01/11 19:08:19;;;;;;;;;5.75;3.25;;;;;11.27;63.18;101646.59;6275543;22;45430;-80
2023/01/11 19:18:34;;;;;;;;;4.50;2.75;;;;;11.11;63.59;101631.53;6119823;23;46390;-81
2023/01/11 19:21:01;;;;;;;;;4.33;3.67;;;;;11.04;63.81;101639.38;6090881;23;45201;-78
2023/01/11 19:23:29;;;;;;;;;5.67;4.00;;;;;11.17;63.87;101639.47;6244699;22;45138;-80
2023/01/11 19:26:03;;;;;;;;;4.00;3.00;;;;;10.96;64.15;101611.19;6248754;22;45438;-80
2023/01/11 19:28:29;;;;;;;;;3.25;3.25;;;;;11.11;63.96;101645.56;6249299;22;47478;-79
2023/01/11 19:30:55;;;;;;;;;4.50;3.00;;;;;11.13;64.29;101648.25;6246852;22;45362;-80
2023/01/11 19:33:20;;;;;;;;;4.25;3.00;;;;;10.94;64.32;101621.72;6248947;22;45433;-80
2023/01/11 19:35:48;;;;;;;;;4.00;4.00;;;;;10.98;64.42;101614.72;6249140;22;45605;-79
2023/01/11 19:38:18;;;;;;;;;6.00;3.75;;;;;11.04;64.47;101633.25;6277319;22;45235;-79
2023/01/11 19:40:47;;;;;;;;;7.25;3.00;;;;;10.95;64.62;101620.84;6275880;22;45412;-80
2023/01/11 19:43:13;;;;;;;;;4.00;3.00;;;;;11.04;64.52;101646.41;6249431;22;45241;-80
2023/01/11 19:45:39;;;;;;;;;5.50;3.50;;;;;10.87;64.70;101609.34;6249334;22;45385;-79
2023/01/11 19:48:05;;;;;;;;;4.25;3.25;;;;;11.02;64.68;101642.88;6248566;22;47377;-78
2023/01/11 19:50:31;;;;;;;;;9.25;6.00;;;;;10.96;65.10;101625.28;6276802;22;45177;-79
2023/01/11 19:52:56;;;;;;;;;4.25;2.00;;;;;11.06;64.92;101635.88;6277747;22;45442;-80
2023/01/11 19:55:22;;;;;;;;;6.00;6.00;;;;;11.06;64.60;101643.78;6277438;22;45468;-79
2023/01/11 19:57:48;;;;;;;;;3.75;3.00;;;;;10.97;64.98;101613.84;6276716;22;46248;-77
2023/01/11 20:00:22;;;;;;;;;2.00;2.00;;;;;10.89;65.09;101606.75;6279046;22;45606;-83
2023/01/11 20:06:37;;;;;;;;;4.00;3.00;;;;;10.95;65.34;101618.22;6270280;22;45630;-80
2023/01/11 20:12:35;;;;;;;;;3.00;1.00;;;;;11.07;65.26;101611.31;6287900;22;45813;-80
2023/01/11 20:15:03;;;;;;;;;2.00;2.00;;;;;10.95;65.29;101612.06;6272209;22;44765;-79
2023/01/11 20:17:48;;;;;;;;;5.50;3.75;;;;;11.04;65.33;101610.41;6240684;22;44855;-79
2023/01/11 20:20:22;;;;;;;;;5.75;4.00;;;;;10.93;65.19;101606.81;6234459;22;48328;-79
2023/01/11 20:22:57;;;;;;;;;1.50;1.00;;;;;10.90;65.46;101585.69;6247837;22;46013;-79
2023/01/11 20:25:32;;;;;;;;;2.25;2.00;;;;;10.94;65.57;101589.25;6251762;22;45736;-79
2023/01/11 20:28:07;;;;;;;;;6.00;4.00;;;;;10.78;65.71;101564.50;6247458;22;45725;-79
2023/01/11 20:30:32;;;;;;;;;1.67;1.00;;;;;10.87;65.76;101579.50;6274434;22;46042;-79
2023/01/11 20:32:58;;;;;;;;;3.00;2.00;;;;;10.75;65.63;101567.13;6245855;22;45524;-80
2023/01/11 20:35:26;;;;;;;;;5.67;3.67;;;;;10.86;65.53;101609.38;6246497;22;45417;-79
2023/01/11 20:38:08;;;;;;;;;2.00;2.00;;;;;10.74;65.87;101584.66;6273214;22;45616;-80
2023/01/11 20:40:36;;;;;;;;;4.50;4.00;;;;;10.75;65.76;101577.66;6264433;22;46984;-82
2023/01/11 20:43:05;;;;;;;;;4.00;2.00;;;;;10.75;66.16;101591.72;6265097;22;45793;-80
2023/01/11 20:45:39;;;;;;;;;3.75;1.75;;;;;10.79;66.30;101597.88;6254749;22;45945;-80
2023/01/11 20:48:10;;;;;;;;;3.25;3.00;;;;;10.78;66.10;101598.75;6278878;22;45596;-80
2023/01/11 20:50:35;;;;;;;;;4.00;3.00;;;;;10.59;66.18;101587.16;6284661;22;45455;-79
2023/01/11 20:53:02;;;;;;;;;2.00;2.00;;;;;10.72;66.34;101604.84;6284734;22;45430;-80
2023/01/11 20:55:28;;;;;;;;;3.75;2.00;;;;;10.63;66.21;101606.50;6246736;22;45300;-80
2023/01/11 20:58:28;;;;;;;;;5.50;5.00;;;;;10.72;66.48;101625.00;6255920;22;45744;-81
2023/01/11 21:01:03;;;;;;;;;5.50;4.00;;;;;10.70;66.71;101618.88;6248348;22;46525;-80
2023/01/11 21:03:29;;;;;;;;;3.75;3.00;;;;;10.68;66.50;101613.56;6227831;22;44844;-80
2023/01/11 21:06:01;;;;;;;;;5.50;3.00;;;;;10.54;66.66;101595.00;6246857;22;45497;-79
2023/01/11 21:08:33;;;;;;;;;5.00;4.25;;;;;10.65;66.38;101607.41;6252927;22;45715;-80
2023/01/11 21:11:11;;;;;;;;;4.50;2.75;;;;;10.62;66.51;101607.38;6231099;22;46946;-81
2023/01/11 21:13:43;;;;;;;;;1.00;1.00;;;;;10.64;66.50;101603.00;6256589;22;45770;-80
2023/01/11 21:16:40;;;;;;;;;3.00;2.00;;;;;10.62;66.69;101616.16;6247685;22;45916;-80
2023/01/11 21:19:25;;;;;;;;;5.00;4.00;;;;;10.63;66.70;101606.50;6277745;22;45603;-80
2023/01/11 21:21:53;;;;;;;;;2.50;2.50;;;;;10.43;66.85;101586.13;6255377;22;46869;-80
2023/01/11 21:24:33;;;;;;;;;2.00;1.00;;;;;10.62;66.85;101610.88;6265586;22;44720;-79
2023/01/11 21:27:07;;;;;;;;;5.75;5.75;;;;;10.63;66.94;101614.41;6269060;22;45492;-79
2023/01/11 21:29:35;;;;;;;;;3.00;2.00;;;;;10.64;67.55;101609.16;6253259;22;45341;-79
2023/01/11 21:32:00;;;;;;;;;4.00;3.25;;;;;10.62;67.08;101605.63;6245893;22;46611;-81
2023/01/11 21:34:26;;;;;;;;;4.00;3.50;;;;;10.56;66.87;101588.03;6277478;22;45775;-79
2023/01/11 21:36:51;;;;;;;;;3.75;3.00;;;;;10.48;67.64;101570.38;6245463;22;45705;-80
2023/01/11 21:39:17;;;;;;;;;5.00;4.00;;;;;10.65;67.25;101591.59;6274405;22;45731;-79
2023/01/11 21:41:56;;;;;;;;;2.25;1.75;;;;;10.60;67.38;101586.28;6244373;22;46969;-77
2023/01/11 21:44:33;;;;;;;;;5.25;3.00;;;;;10.61;67.74;101593.31;6246773;22;45340;-79
2023/01/11 21:47:02;;;;;;;;;3.75;2.25;;;;;10.55;67.79;101582.72;6273085;22;45823;-79
2023/01/11 21:49:29;;;;;;;;;4.50;2.00;;;;;10.49;67.36;101577.41;6284447;22;45323;-78
2023/01/11 21:51:55;;;;;;;;;2.25;1.25;;;;;10.40;67.47;101575.56;6232989;22;46966;-79
2023/01/11 21:54:20;;;;;;;;;5.50;3.00;;;;;10.47;67.50;101576.50;6252494;22;45560;-78
2023/01/11 21:56:49;;;;;;;;;7.00;4.00;;;;;10.51;67.58;101597.63;6258101;22;45760;-79
2023/01/11 21:59:38;;;;;;;;;;;;;;;;;;;;;
2023/01/11 22:02:16;;;;;;;;;3.75;3.50;;;;;10.47;67.73;101594.94;6291960;22;74061;-76
2023/01/11 22:04:43;;;;;;;;;6.00;3.00;;;;;10.46;67.80;101609.84;6265802;22;45317;-76
2023/01/11 22:07:09;;;;;;;;;4.25;3.75;;;;;10.25;67.98;101563.09;6264003;22;45446;-78
2023/01/11 22:09:35;;;;;;;;;2.00;2.00;;;;;10.37;68.14;101572.88;6263790;22;44829;-78
2023/01/11 22:12:06;;;;;;;;;2.00;2.00;;;;;10.42;68.12;101589.59;6263785;22;46950;-77
2023/01/11 22:14:34;;;;;;;;;4.25;3.00;;;;;10.40;68.19;101582.56;6264306;22;45673;-77
2023/01/11 22:17:05;;;;;;;;;5.25;4.25;;;;;10.40;68.44;101580.84;6266132;22;45361;-78
2023/01/11 22:19:30;;;;;;;;;4.50;2.75;;;;;10.27;68.38;101539.44;6260818;22;45353;-78
2023/01/11 22:21:56;;;;;;;;;3.00;3.00;;;;;10.23;68.62;101556.91;6260426;22;47376;-78
2023/01/11 22:24:22;;;;;;;;;1.75;1.75;;;;;10.28;68.38;101547.34;6280145;22;45748;-79
2023/01/11 22:26:51;;;;;;;;;5.25;3.50;;;;;10.29;68.18;101559.66;6260837;22;45674;-79
2023/01/11 22:29:20;;;;;;;;;5.00;2.00;;;;;10.27;68.60;101553.50;6229398;22;45496;-79
2023/01/11 22:31:53;;;;;;;;;1.25;1.00;;;;;10.29;68.80;101577.19;6255096;22;46286;-80
2023/01/11 22:34:33;;;;;;;;;6.25;3.75;;;;;10.32;68.81;101595.66;6290982;22;44704;-79
2023/01/11 22:37:03;;;;;;;;;3.75;3.75;;;;;10.16;68.67;101560.38;6254472;22;45437;-79
2023/01/11 22:39:44;;;;;;;;;5.25;3.75;;;;;10.41;68.78;101608.03;6260060;22;44884;-79
2023/01/11 22:42:35;;;;;;;;;3.00;3.00;;;;;10.43;68.91;101599.28;6257305;22;46944;-79
2023/01/11 22:45:32;;;;;;;;;3.00;3.00;;;;;10.47;69.11;101600.19;6260059;22;45253;-79
2023/01/11 22:47:59;;;;;;;;;1.25;1.25;;;;;10.34;68.92;101584.28;6250711;22;45364;-78
2023/01/11 22:50:25;;;;;;;;;11.50;9.00;;;;;10.48;68.85;101596.72;6245475;22;45840;-79
2023/01/11 22:52:53;;;;;;;;;5.50;5.00;;;;;10.50;68.93;101590.56;6244050;22;47356;-79
2023/01/11 22:55:18;;;;;;;;;6.50;4.50;;;;;10.56;69.01;101609.09;6246060;22;45413;-79
2023/01/11 22:57:44;;;;;;;;;6.75;2.75;;;;;10.57;69.14;101609.97;6244574;22;45600;-79
2023/01/11 23:00:15;;;;;;;;;5.67;3.67;;;;;10.60;68.97;101621.41;6274099;22;45545;-80
2023/01/11 23:03:07;;;;;;;;;4.00;4.00;;;;;10.56;68.99;101614.34;6271911;22;45509;-79
2023/01/11 23:05:32;;;;;;;;;5.50;4.25;;;;;10.62;69.07;101621.41;6225875;22;45715;-79
2023/01/11 23:08:34;;;;;;;;;6.50;3.75;;;;;10.48;69.16;101589.69;6242143;22;45443;-80
2023/01/11 23:11:06;;;;;;;;;3.25;3.00;;;;;10.42;68.89;101557.13;6243015;22;45510;-79
2023/01/11 23:14:16;;;;;;;;;3.75;2.50;;;;;10.44;69.12;101573.84;6247922;22;47768;-78
2023/01/11 23:16:48;;;;;;;;;3.25;2.00;;;;;10.50;69.15;101581.78;6248275;22;45376;-83
2023/01/11 23:19:18;;;;;;;;;6.25;4.00;;;;;10.47;69.12;101579.13;6249116;22;45355;-80
2023/01/11 23:21:50;;;;;;;;;3.00;3.00;;;;;10.66;69.08;101615.31;6246296;22;46313;-82
2023/01/11 23:24:21;;;;;;;;;3.50;3.50;;;;;10.73;69.17;101619.78;6247914;22;46962;-82
2023/01/11 23:27:09;;;;;;;;;4.50;3.00;;;;;10.54;69.20;101595.00;6247511;22;45756;-82
2023/01/11 23:29:35;;;;;;;;;5.75;4.00;;;;;10.72;69.13;101607.50;6240158;22;45283;-80
2023/01/11 23:32:56;;;;;;;;;5.50;3.00;;;;;10.54;69.32;101576.59;6248741;22;45348;-82
2023/01/11 23:35:57;;;;;;;;;4.25;2.75;;;;;10.65;69.40;101600.38;6124719;23;48412;-80
2023/01/11 23:39:29;;;;;;;;;;;;;;;;;;;;;
2023/01/11 23:49:19;;;;;;;;;4.25;3.75;;;;;10.74;69.35;101583.78;6151213;23;45716;-80
2023/01/11 23:51:45;;;;;;;;;5.75;4.75;;;;;10.73;69.65;101585.53;6127715;23;45674;-81
2023/01/11 23:54:44;;;;;;;;;4.00;3.00;;;;;10.75;69.41;101582.94;6277655;22;45362;-81
2023/01/11 23:57:11;;;;;;;;;4.75;2.00;;;;;10.81;69.84;101588.25;6277639;22;45312;-82
2023/01/11 23:59:37;;;;;;;;;6.00;3.67;;;;;10.82;69.65;101582.09;6247846;22;46897;-81
